createdAt,value
2022-08-26T00:02:23.869Z,26.30
2022-08-26T00:04:57.545Z,26.30
2022-08-26T00:07:32.551Z,26.30
2022-08-26T00:10:08.756Z,26.20
2022-08-26T00:12:43.262Z,26.20
2022-08-26T00:15:23.086Z,26.20
2022-08-26T00:17:57.976Z,26.10
2022-08-26T00:20:35.461Z,26.10
2022-08-26T00:23:09.491Z,26.10
2022-08-26T00:25:44.089Z,26.10
2022-08-26T00:28:19.030Z,26.00
2022-08-26T00:30:58.953Z,26.00
2022-08-26T00:33:32.870Z,26.00
2022-08-26T00:36:08.378Z,26.00
2022-08-26T00:38:53.672Z,25.90
2022-08-26T00:41:28.061Z,25.80
2022-08-26T00:44:05.509Z,25.80
2022-08-26T00:46:46.871Z,25.80
2022-08-26T00:49:30.058Z,25.80
2022-08-26T00:52:09.849Z,25.70
2022-08-26T00:54:58.371Z,25.70
2022-08-26T00:57:36.588Z,25.60
2022-08-26T01:00:17.228Z,25.60
2022-08-26T01:02:55.805Z,25.60
2022-08-26T01:05:31.499Z,25.50
2022-08-26T01:08:05.618Z,25.50
2022-08-26T01:10:39.756Z,25.50
2022-08-26T01:13:14.845Z,25.40
2022-08-26T01:16:02.116Z,25.40
2022-08-26T01:18:37.601Z,25.40
2022-08-26T01:21:22.581Z,25.40
2022-08-26T01:23:59.991Z,25.40
2022-08-26T01:26:41.007Z,25.40
2022-08-26T01:29:20.183Z,25.30
2022-08-26T01:31:57.586Z,25.30
2022-08-26T01:34:36.256Z,25.30
2022-08-26T01:37:16.243Z,25.30
2022-08-26T01:39:54.933Z,25.20
2022-08-26T01:42:31.572Z,25.20
2022-08-26T01:45:14.323Z,25.20
2022-08-26T01:47:56.825Z,25.20
2022-08-26T01:50:36.786Z,24.90
2022-08-26T01:53:16.828Z,25.10
2022-08-26T01:56:00.493Z,25.10
2022-08-26T01:58:40.798Z,25.20
2022-08-26T02:01:15.499Z,25.00
2022-08-26T02:03:59.955Z,24.90
2022-08-26T02:06:34.761Z,25.00
2022-08-26T02:09:09.569Z,24.90
2022-08-26T02:11:45.969Z,24.90
2022-08-26T02:14:24.172Z,24.90
2022-08-26T02:17:04.290Z,24.90
2022-08-26T02:19:46.532Z,24.80
2022-08-26T02:22:24.930Z,24.80
2022-08-26T02:25:07.486Z,24.70
2022-08-26T02:27:43.807Z,24.70
2022-08-26T02:30:24.260Z,24.70
2022-08-26T02:33:03.870Z,24.70
2022-08-26T02:35:45.393Z,24.70
2022-08-26T02:38:20.119Z,24.70
2022-08-26T02:40:53.569Z,24.60
2022-08-26T02:43:32.910Z,24.60
2022-08-26T02:46:07.487Z,24.60
2022-08-26T02:48:40.941Z,24.60
2022-08-26T02:51:14.517Z,24.50
2022-08-26T02:53:48.335Z,24.50
2022-08-26T02:56:22.124Z,24.50
2022-08-26T02:58:57.096Z,24.50
2022-08-26T03:01:35.543Z,24.50
2022-08-26T03:04:13.011Z,24.40
2022-08-26T03:06:52.953Z,24.40
2022-08-26T03:09:28.093Z,24.40
2022-08-26T03:12:02.202Z,24.40
2022-08-26T03:14:37.014Z,24.30
2022-08-26T03:17:10.724Z,24.30
2022-08-26T03:19:44.488Z,24.30
2022-08-26T03:22:18.992Z,24.30
2022-08-26T03:24:54.322Z,24.20
2022-08-26T03:27:28.086Z,24.20
2022-08-26T03:30:20.995Z,24.20
2022-08-26T03:32:54.472Z,24.20
2022-08-26T03:35:28.768Z,24.20
2022-08-26T03:38:04.841Z,24.10
2022-08-26T03:40:40.025Z,24.10
2022-08-26T03:43:16.644Z,24.10
2022-08-26T03:45:52.394Z,24.10
2022-08-26T03:48:26.612Z,24.10
2022-08-26T03:51:01.175Z,24.10
2022-08-26T03:53:36.861Z,24.00
2022-08-26T03:56:10.830Z,24.10
2022-08-26T03:58:45.899Z,24.00
2022-08-26T04:01:23.018Z,24.00
2022-08-26T04:04:00.176Z,24.00
2022-08-26T04:06:39.055Z,24.00
2022-08-26T04:09:19.707Z,24.00
2022-08-26T04:11:54.891Z,23.90
2022-08-26T04:14:31.172Z,23.90
2022-08-26T04:17:07.744Z,23.90
2022-08-26T04:19:42.259Z,23.90
2022-08-26T04:22:15.969Z,23.80
2022-08-26T04:24:58.665Z,23.80
2022-08-26T04:27:32.365Z,23.80
2022-08-26T04:30:08.886Z,23.80
2022-08-26T04:32:44.853Z,23.80
2022-08-26T04:35:20.912Z,23.80
2022-08-26T04:37:59.023Z,23.80
2022-08-26T04:40:32.726Z,23.80
2022-08-26T04:43:07.125Z,23.80
2022-08-26T04:45:43.638Z,23.80
2022-08-26T04:48:21.544Z,23.80
2022-08-26T04:50:55.762Z,23.80
2022-08-26T04:53:30.558Z,23.80
2022-08-26T04:56:05.815Z,23.80
2022-08-26T04:58:41.788Z,23.80
2022-08-26T05:01:17.334Z,23.80
2022-08-26T05:03:57.436Z,23.80
2022-08-26T05:06:37.013Z,23.80
2022-08-26T05:09:18.733Z,23.80
2022-08-26T05:11:52.830Z,23.80
2022-08-26T05:14:28.393Z,23.80
2022-08-26T05:17:02.967Z,23.90
2022-08-26T05:19:38.580Z,23.90
2022-08-26T05:22:18.375Z,23.90
2022-08-26T05:24:53.044Z,23.90
2022-08-26T05:27:28.725Z,23.90
2022-08-26T05:30:09.137Z,23.90
2022-08-26T05:32:44.600Z,23.70
2022-08-26T05:35:20.617Z,23.90
2022-08-26T05:37:56.332Z,24.00
2022-08-26T05:40:33.392Z,24.00
2022-08-26T05:43:11.760Z,24.00
2022-08-26T05:45:48.999Z,24.00
2022-08-26T05:48:24.485Z,24.00
2022-08-26T05:51:06.091Z,24.00
2022-08-26T05:53:43.861Z,24.00
2022-08-26T05:56:29.166Z,24.10
2022-08-26T05:59:05.510Z,24.10
2022-08-26T06:01:47.259Z,24.10
2022-08-26T06:04:21.364Z,24.10
2022-08-26T06:06:57.323Z,24.10
2022-08-26T06:09:31.871Z,24.10
2022-08-26T06:12:11.277Z,24.10
2022-08-26T06:14:49.034Z,24.10
2022-08-26T06:17:23.210Z,23.80
2022-08-26T06:19:59.784Z,24.10
2022-08-26T06:22:58.662Z,24.10
2022-08-26T06:25:39.629Z,24.10
2022-08-26T06:28:18.382Z,24.20
2022-08-26T06:30:56.008Z,24.20
2022-08-26T06:33:43.695Z,24.20
2022-08-26T06:36:20.529Z,24.20
2022-08-26T06:39:04.640Z,24.20
2022-08-26T06:41:43.370Z,24.20
2022-08-26T06:44:22.311Z,24.20
2022-08-26T06:46:56.243Z,24.30
2022-08-26T06:49:30.958Z,24.30
2022-08-26T06:52:12.163Z,24.30
2022-08-26T06:54:55.039Z,24.30
2022-08-26T06:57:34.868Z,24.30
2022-08-26T07:00:23.976Z,24.30
2022-08-26T07:02:58.329Z,24.40
2022-08-26T07:05:33.926Z,24.40
2022-08-26T07:08:08.892Z,24.40
2022-08-26T07:10:45.695Z,24.50
2022-08-26T07:13:29.896Z,24.50
2022-08-26T07:16:06.240Z,24.50
2022-08-26T07:18:44.948Z,24.50
2022-08-26T07:21:22.990Z,24.50
2022-08-26T07:24:01.227Z,24.50
2022-08-26T07:26:44.538Z,24.60
2022-08-26T07:29:19.124Z,24.60
2022-08-26T07:32:02.390Z,24.60
2022-08-26T07:34:45.696Z,24.70
2022-08-26T07:37:22.957Z,24.70
2022-08-26T07:39:59.344Z,24.70
2022-08-26T07:42:36.137Z,24.70
2022-08-26T07:45:10.685Z,24.90
2022-08-26T07:47:48.046Z,24.80
2022-08-26T07:50:48.896Z,24.60
2022-08-26T07:53:26.697Z,24.80
2022-08-26T07:56:10.798Z,24.90
2022-08-26T07:59:14.061Z,24.70
2022-08-26T08:02:07.074Z,24.90
2022-08-26T08:04:58.311Z,25.00
2022-08-26T08:07:44.513Z,25.00
2022-08-26T08:10:29.017Z,25.00
2022-08-26T08:13:13.391Z,24.80
2022-08-26T08:16:04.187Z,25.00
2022-08-26T08:18:46.833Z,25.00
2022-08-26T08:21:43.102Z,25.10
2022-08-26T08:24:18.657Z,25.10
2022-08-26T08:26:56.481Z,25.10
2022-08-26T08:29:35.250Z,25.10
2022-08-26T08:32:16.109Z,25.10
2022-08-26T08:34:56.635Z,25.10
2022-08-26T08:37:46.499Z,25.30
2022-08-26T08:40:39.753Z,25.20
2022-08-26T08:43:37.422Z,25.20
2022-08-26T08:46:20.483Z,25.20
2022-08-26T08:49:05.993Z,25.20
2022-08-26T08:51:53.591Z,25.20
2022-08-26T08:54:48.061Z,25.20
2022-08-26T08:57:46.567Z,25.00
2022-08-26T09:00:31.145Z,25.20
2022-08-26T09:03:25.069Z,25.20
2022-08-26T09:06:37.711Z,25.30
2022-08-26T09:09:37.821Z,25.20
2022-08-26T09:12:29.757Z,25.20
2022-08-26T09:15:40.707Z,25.00
2022-08-26T09:18:38.016Z,25.20
2022-08-26T09:21:26.897Z,25.20
2022-08-26T09:24:15.285Z,25.30
2022-08-26T09:27:05.750Z,25.30
2022-08-26T09:29:50.464Z,25.30
2022-08-26T09:32:55.948Z,25.30
2022-08-26T09:35:48.724Z,25.30
2022-08-26T09:38:38.349Z,25.30
2022-08-26T09:41:27.791Z,25.40
2022-08-26T09:44:19.314Z,25.40
2022-08-26T09:47:04.904Z,25.50
2022-08-26T09:50:02.882Z,25.50
2022-08-26T09:52:43.180Z,25.50
2022-08-26T09:55:36.986Z,25.50
2022-08-26T09:58:38.728Z,25.50
2022-08-26T10:01:42.315Z,25.60
2022-08-26T10:04:45.642Z,25.70
2022-08-26T10:07:47.242Z,25.80
2022-08-26T10:10:41.261Z,25.90
2022-08-26T10:13:35.963Z,25.90
2022-08-26T10:16:36.402Z,26.00
2022-08-26T10:19:29.145Z,26.10
2022-08-26T10:22:32.829Z,26.10
2022-08-26T10:25:24.704Z,26.20
2022-08-26T10:28:28.084Z,26.20
2022-08-26T10:31:38.283Z,26.20
2022-08-26T10:34:23.041Z,26.30
2022-08-26T10:37:14.472Z,26.30
2022-08-26T10:40:03.763Z,26.30
2022-08-26T10:42:49.249Z,26.30
2022-08-26T10:45:36.452Z,26.40
2022-08-26T10:48:19.093Z,26.40
2022-08-26T10:51:11.767Z,26.40
2022-08-26T10:53:58.701Z,26.60
2022-08-26T10:56:53.655Z,26.40
2022-08-26T10:59:53.418Z,26.40
2022-08-26T11:02:39.567Z,26.40
2022-08-26T11:05:24.702Z,26.50
2022-08-26T11:08:53.974Z,26.50
2022-08-26T11:11:58.801Z,26.30
2022-08-26T11:14:53.276Z,26.50
2022-08-26T11:18:01.750Z,26.50
2022-08-26T11:20:45.203Z,26.50
2022-08-26T11:23:52.885Z,26.50
2022-08-26T11:26:56.115Z,26.50
2022-08-26T11:30:08.710Z,26.50
2022-08-26T11:32:54.319Z,26.50
2022-08-26T11:35:55.538Z,26.50
2022-08-26T11:38:36.762Z,26.50
2022-08-26T11:41:25.386Z,26.50
2022-08-26T11:44:09.189Z,26.50
2022-08-26T11:47:01.943Z,26.50
2022-08-26T11:49:40.034Z,26.60
2022-08-26T11:52:25.214Z,26.60
2022-08-26T11:55:10.301Z,26.60
2022-08-26T11:57:49.261Z,26.60
2022-08-26T12:00:33.805Z,26.70
2022-08-26T12:03:11.938Z,26.70
2022-08-26T12:05:51.394Z,26.70
2022-08-26T12:08:34.490Z,26.80
2022-08-26T12:11:17.696Z,26.80
2022-08-26T12:14:05.693Z,26.80
2022-08-26T12:16:57.086Z,27.00
2022-08-26T12:19:34.151Z,26.50
2022-08-26T12:22:21.525Z,26.80
2022-08-26T12:25:01.940Z,26.80
2022-08-26T12:27:41.498Z,26.80
2022-08-26T12:30:20.295Z,26.80
2022-08-26T12:33:22.986Z,26.90
2022-08-26T12:36:02.285Z,26.80
2022-08-26T12:38:44.509Z,26.80
2022-08-26T12:41:45.380Z,26.80
2022-08-26T12:44:53.180Z,26.90
2022-08-26T12:47:43.015Z,26.80
2022-08-26T12:50:22.865Z,26.80
2022-08-26T12:53:02.375Z,27.00
2022-08-26T12:55:42.276Z,27.00
2022-08-26T12:58:29.848Z,26.80
2022-08-26T13:01:24.318Z,26.90
2022-08-26T13:03:58.133Z,26.80
2022-08-26T13:06:34.033Z,26.80
2022-08-26T13:09:32.664Z,26.80
2022-08-26T13:12:07.949Z,26.80
2022-08-26T13:14:41.686Z,26.80
2022-08-26T13:17:15.315Z,26.80
2022-08-26T13:19:49.314Z,26.90
2022-08-26T13:22:26.900Z,26.80
2022-08-26T13:25:08.331Z,26.80
2022-08-26T13:27:47.171Z,26.80
2022-08-26T13:30:39.548Z,26.80
2022-08-26T13:33:21.391Z,26.80
2022-08-26T13:35:59.080Z,26.80
2022-08-26T13:38:35.932Z,26.80
2022-08-26T13:41:17.542Z,26.80
2022-08-26T13:44:02.933Z,26.90
2022-08-26T13:46:38.036Z,26.80
2022-08-26T13:49:14.625Z,26.80
2022-08-26T13:51:50.670Z,26.80
2022-08-26T13:54:25.683Z,26.80
2022-08-26T13:57:00.671Z,26.80
2022-08-26T13:59:35.365Z,26.80
2022-08-26T14:02:11.045Z,26.80
2022-08-26T14:04:54.920Z,26.80
2022-08-26T14:07:30.193Z,26.80
2022-08-26T14:10:14.303Z,26.80
2022-08-26T14:12:50.113Z,26.80
2022-08-26T14:15:26.000Z,26.80
2022-08-26T14:18:07.581Z,26.80
2022-08-26T14:20:49.762Z,26.80
2022-08-26T14:23:26.253Z,26.80
2022-08-26T14:26:00.464Z,26.80
2022-08-26T14:28:35.690Z,27.00
2022-08-26T14:31:10.701Z,26.80
2022-08-26T14:33:45.133Z,26.80
2022-08-26T14:36:38.338Z,26.80
2022-08-26T14:39:14.773Z,26.60
2022-08-26T14:41:54.137Z,26.80
2022-08-26T14:44:34.740Z,26.80
2022-08-26T14:47:09.263Z,26.80
2022-08-26T14:49:47.828Z,26.80
2022-08-26T14:52:21.787Z,26.80
2022-08-26T14:54:56.170Z,26.80
2022-08-26T14:57:29.844Z,26.70
2022-08-26T15:00:07.415Z,26.70
2022-08-26T15:02:41.682Z,26.60
2022-08-26T15:05:18.243Z,26.60
2022-08-26T15:07:52.242Z,26.60
2022-08-26T15:10:34.681Z,26.70
2022-08-26T15:13:09.999Z,26.70
2022-08-26T15:15:56.729Z,26.60
2022-08-26T15:18:31.848Z,26.70
2022-08-26T15:21:16.629Z,26.80
2022-08-26T15:23:51.788Z,26.80
2022-08-26T15:26:26.894Z,26.80
2022-08-26T15:29:04.890Z,26.80
2022-08-26T15:31:44.207Z,26.80
2022-08-26T15:34:23.848Z,26.80
2022-08-26T15:36:57.861Z,26.80
2022-08-26T15:39:31.750Z,26.80
2022-08-26T15:42:09.118Z,26.80
2022-08-26T15:44:45.559Z,26.80
2022-08-26T15:47:32.729Z,26.80
2022-08-26T15:50:21.464Z,26.80
2022-08-26T15:52:57.266Z,26.70
2022-08-26T15:55:31.710Z,26.70
2022-08-26T15:58:13.278Z,26.70
2022-08-26T16:00:46.915Z,26.70
2022-08-26T16:03:33.281Z,26.60
2022-08-26T16:06:08.340Z,26.60
2022-08-26T16:08:45.553Z,26.60
2022-08-26T16:11:21.612Z,26.60
2022-08-26T16:13:56.729Z,26.50
2022-08-26T16:16:31.390Z,26.50
2022-08-26T16:19:18.990Z,26.50
2022-08-26T16:21:53.212Z,26.50
2022-08-26T16:24:30.689Z,26.50
2022-08-26T16:27:16.185Z,26.50
2022-08-26T16:29:50.868Z,26.40
2022-08-26T16:32:38.936Z,26.50
2022-08-26T16:35:18.224Z,26.50
2022-08-26T16:37:52.634Z,26.40
2022-08-26T16:40:27.796Z,26.40
2022-08-26T16:43:10.082Z,26.20
2022-08-26T16:45:54.836Z,26.40
2022-08-26T16:48:30.010Z,26.40
2022-08-26T16:51:07.858Z,26.40
2022-08-26T16:53:42.946Z,26.40
2022-08-26T16:56:24.062Z,26.40
2022-08-26T16:59:12.127Z,26.40
2022-08-26T17:01:49.961Z,26.30
2022-08-26T17:04:29.110Z,26.00
2022-08-26T17:07:13.713Z,26.20
2022-08-26T17:09:59.965Z,26.20
2022-08-26T17:12:42.085Z,26.20
2022-08-26T17:15:18.401Z,26.20
2022-08-26T17:17:55.254Z,26.20
2022-08-26T17:20:32.614Z,26.10
2022-08-26T17:23:11.684Z,26.30
2022-08-26T17:25:49.139Z,26.10
2022-08-26T17:28:29.911Z,26.10
2022-08-26T17:31:15.911Z,26.10
2022-08-26T17:33:53.936Z,26.00
2022-08-26T17:36:28.871Z,25.80
2022-08-26T17:39:12.214Z,25.80
2022-08-26T17:41:49.273Z,25.90
2022-08-26T17:44:36.934Z,25.90
2022-08-26T17:47:25.380Z,25.90
2022-08-26T17:50:01.539Z,25.90
2022-08-26T17:52:40.128Z,25.90
2022-08-26T17:55:23.582Z,25.90
2022-08-26T17:57:57.954Z,26.00
2022-08-26T18:00:45.178Z,25.80
2022-08-26T18:03:24.610Z,25.80
2022-08-26T18:06:06.307Z,25.80
2022-08-26T18:08:44.301Z,25.80
2022-08-26T18:11:24.968Z,25.80
2022-08-26T18:14:04.014Z,25.80
2022-08-26T18:16:45.083Z,25.80
2022-08-26T18:19:47.563Z,25.70
2022-08-26T18:22:32.067Z,25.70
2022-08-26T18:25:08.700Z,25.70
2022-08-26T18:27:54.762Z,25.70
2022-08-26T18:30:43.291Z,25.60
2022-08-26T18:33:24.014Z,25.60
2022-08-26T18:36:35.730Z,25.60
2022-08-26T18:39:18.281Z,25.60
2022-08-26T18:42:04.570Z,25.50
2022-08-26T18:44:41.147Z,25.50
2022-08-26T18:47:20.562Z,25.50
2022-08-26T18:50:09.940Z,25.50
2022-08-26T18:52:44.964Z,25.50
2022-08-26T18:55:26.503Z,25.40
2022-08-26T18:58:06.661Z,25.40
2022-08-26T19:00:48.454Z,25.40
2022-08-26T19:03:23.772Z,25.40
2022-08-26T19:05:59.487Z,25.10
2022-08-26T19:08:39.228Z,25.40
2022-08-26T19:11:32.428Z,25.30
2022-08-26T19:14:28.412Z,25.30
2022-08-26T19:17:17.813Z,25.30
2022-08-26T19:20:10.276Z,25.30
2022-08-26T19:23:10.587Z,25.30
2022-08-26T19:26:10.299Z,25.30
2022-08-26T19:28:52.202Z,25.20
2022-08-26T19:31:28.954Z,25.20
2022-08-26T19:34:25.280Z,25.20
2022-08-26T19:37:12.987Z,25.20
2022-08-26T19:39:53.990Z,25.20
2022-08-26T19:42:54.513Z,25.10
2022-08-26T19:45:33.819Z,25.10
2022-08-26T19:48:11.697Z,25.10
2022-08-26T19:50:49.131Z,25.10
2022-08-26T19:53:23.138Z,25.10
2022-08-26T19:55:57.547Z,25.00
2022-08-26T19:58:31.863Z,24.90
2022-08-26T20:01:06.013Z,24.90
2022-08-26T20:03:41.033Z,24.90
2022-08-26T20:06:18.263Z,24.90
2022-08-26T20:08:53.884Z,24.90
2022-08-26T20:11:31.551Z,24.90
2022-08-26T20:14:13.759Z,24.90
2022-08-26T20:16:50.866Z,24.60
2022-08-26T20:19:46.651Z,24.60
2022-08-26T20:22:23.057Z,24.80
2022-08-26T20:24:57.266Z,24.80
2022-08-26T20:27:38.398Z,24.80
2022-08-26T20:30:14.303Z,24.80
2022-08-26T20:32:53.581Z,24.80
2022-08-26T20:35:27.497Z,24.70
2022-08-26T20:38:05.630Z,24.70
2022-08-26T20:40:44.570Z,24.70
2022-08-26T20:43:21.870Z,24.70
2022-08-26T20:45:57.240Z,24.60
2022-08-26T20:48:34.259Z,24.60
2022-08-26T20:51:15.121Z,24.60
2022-08-26T20:53:51.444Z,24.50
2022-08-26T20:56:29.714Z,24.50
2022-08-26T20:59:07.098Z,24.50
2022-08-26T21:01:42.770Z,24.50
2022-08-26T21:04:25.830Z,24.40
2022-08-26T21:07:01.034Z,24.40
2022-08-26T21:09:43.615Z,24.40
2022-08-26T21:12:19.191Z,24.30
2022-08-26T21:14:53.800Z,24.30
2022-08-26T21:17:33.763Z,24.20
2022-08-26T21:20:11.036Z,24.20
2022-08-26T21:22:51.019Z,24.20
2022-08-26T21:25:28.898Z,24.10
2022-08-26T21:28:05.711Z,24.10
2022-08-26T21:30:47.505Z,24.00
2022-08-26T21:33:25.768Z,24.00
2022-08-26T21:36:04.493Z,24.00
2022-08-26T21:38:40.273Z,23.90
2022-08-26T21:41:22.239Z,23.90
2022-08-26T21:44:03.388Z,23.90
2022-08-26T21:46:38.294Z,23.90
2022-08-26T21:49:16.801Z,23.80
2022-08-26T21:52:11.052Z,23.70
2022-08-26T21:55:08.771Z,23.70
2022-08-26T21:57:45.371Z,23.70
2022-08-26T22:00:20.311Z,23.70
2022-08-26T22:03:01.016Z,23.70
2022-08-26T22:05:51.670Z,23.70
2022-08-26T22:08:28.015Z,23.60
2022-08-26T22:11:10.560Z,23.30
2022-08-26T22:13:53.231Z,23.60
2022-08-26T22:16:50.299Z,23.50
2022-08-26T22:19:59.544Z,23.50
2022-08-26T22:22:46.709Z,23.50
2022-08-26T22:38:49.078Z,23.40
2022-08-26T22:41:30.714Z,23.30
2022-08-26T22:44:09.859Z,23.30
2022-08-26T22:46:45.242Z,23.20
2022-08-26T22:49:26.488Z,23.20
2022-08-26T22:52:00.102Z,23.20
2022-08-26T22:54:35.948Z,23.10
2022-08-26T22:57:09.796Z,23.10
2022-08-26T22:59:43.411Z,23.10
2022-08-26T23:02:17.633Z,23.10
2022-08-26T23:04:52.611Z,23.10
2022-08-26T23:07:26.262Z,23.10
2022-08-26T23:10:02.560Z,23.00
2022-08-26T23:12:39.203Z,23.00
2022-08-26T23:15:13.958Z,23.00
2022-08-26T23:17:57.036Z,22.90
2022-08-26T23:20:33.835Z,22.90
2022-08-26T23:23:08.052Z,22.90
2022-08-26T23:25:43.075Z,22.90
2022-08-26T23:28:16.923Z,22.90
2022-08-26T23:30:51.359Z,22.80
2022-08-26T23:33:45.004Z,22.80
2022-08-26T23:36:22.837Z,22.80
2022-08-26T23:38:56.721Z,22.80
2022-08-26T23:41:32.482Z,22.80
2022-08-26T23:44:07.116Z,22.70
2022-08-26T23:46:40.982Z,22.70
2022-08-26T23:49:15.040Z,22.70
2022-08-26T23:52:06.959Z,22.70
2022-08-26T23:54:42.079Z,22.60
2022-08-26T23:57:19.401Z,22.60
2022-08-26T23:59:53.441Z,22.60
